Terminal Aerodrome Forecast
Issued by NWS

Home | Current Version | Previous Version | Text Only | Print | Product List | Glossary On
Versions: 1 2 3 4 5 6 7 8 9 10 11 12 13 14 15 16
000
FTUS43 KGRR 162340
TAFBTL
TAF
KBTL 162340Z 1700/1724 10007KT 3SM -RA BR OVC007
     FM170200 11007KT 1SM -RA BR OVC004
     FM171300 22007KT 3/4SM BR VCSH OVC002
     FM171400 21006KT 1/2SM -RA FG OVC001
     FM171500 22007KT 1 1/2SM -RA BR OVC001=

USA.gov is the U.S. government's official web portal to all federal, state and local government web resources and services.